Time;durP1;ratioP1;P1;durP2;ratioP2;P2;SDS_P1;SDS_P2;PMS_P1;PMS_P2;Temp;Humidity;BMP_temperature;BMP_pressure;BME280_temperature;BME280_humidity;BME280_pressure;Samples;Min_cycle;Max_cycle;Signal;HPM_P1;HPM_P2
2024/01/13 00:02:24;;;;;;;10.70;5.80;;;;;;;3.34;29.96;101574.36;105278;1257;60446;-59
2024/01/13 00:04:52;;;;;;;9.40;5.80;;;;;;;3.32;29.93;101565.79;105314;1260;60389;-60
2024/01/13 00:07:20;;;;;;;11.20;5.90;;;;;;;3.31;29.84;101559.70;105376;1255;73910;-60
2024/01/13 00:09:47;;;;;;;9.70;5.40;;;;;;;3.30;29.84;101554.61;105268;1259;71825;-59
2024/01/13 00:12:15;;;;;;;8.80;5.50;;;;;;;3.29;29.83;101553.89;105308;1258;71447;-57
2024/01/13 00:14:43;;;;;;;9.40;5.80;;;;;;;3.27;29.84;101554.34;105312;1257;60511;-58
2024/01/13 00:17:11;;;;;;;8.70;4.80;;;;;;;3.25;29.82;101556.39;105342;1257;60600;-58
2024/01/13 00:19:38;;;;;;;7.10;5.10;;;;;;;3.25;29.81;101553.75;105186;1260;73876;-57
2024/01/13 00:22:06;;;;;;;9.40;5.00;;;;;;;3.24;29.83;101553.02;105377;1260;71754;-60
2024/01/13 00:24:34;;;;;;;10.60;6.00;;;;;;;3.23;29.83;101546.74;105543;1257;72707;-59
2024/01/13 00:27:03;;;;;;;11.10;5.30;;;;;;;3.23;29.85;101548.47;105277;1257;60440;-58
2024/01/13 00:29:31;;;;;;;8.40;5.10;;;;;;;3.21;29.87;101550.13;105620;1254;61690;-59
2024/01/13 00:31:58;;;;;;;11.10;6.10;;;;;;;3.20;29.82;101545.25;105650;1257;73943;-60
2024/01/13 00:34:26;;;;;;;9.50;5.50;;;;;;;3.18;29.85;101540.17;105594;1257;71450;-58
2024/01/13 00:36:54;;;;;;;8.40;5.10;;;;;;;3.17;29.94;101538.23;105579;1257;73297;-58
2024/01/13 00:39:22;;;;;;;8.30;4.90;;;;;;;3.16;29.95;101531.96;105575;1254;60481;-59
2024/01/13 00:41:50;;;;;;;8.30;4.60;;;;;;;3.15;30.00;101525.52;105381;1254;60709;-57
2024/01/13 00:44:18;;;;;;;7.00;5.00;;;;;;;3.14;30.01;101524.23;105546;1260;72822;-58
2024/01/13 00:46:45;;;;;;;6.30;4.30;;;;;;;3.13;30.16;101517.97;105578;1257;71927;-58
2024/01/13 00:49:13;;;;;;;6.20;4.20;;;;;;;3.12;30.09;101512.05;105182;1257;71375;-58
2024/01/13 00:51:41;;;;;;;8.20;4.80;;;;;;;3.11;30.24;101509.23;105487;1257;60437;-58
2024/01/13 00:54:10;;;;;;;6.50;4.60;;;;;;;3.10;30.15;101506.27;105635;1251;60952;-58
2024/01/13 00:56:39;;;;;;;5.80;3.80;;;;;;;3.10;30.23;101496.53;105619;1257;72580;-57
2024/01/13 00:59:07;;;;;;;7.00;4.60;;;;;;;3.10;30.26;101492.55;105590;1257;71570;-58
2024/01/13 01:01:35;;;;;;;8.40;4.30;;;;;;;3.09;30.21;101490.80;105254;1258;72698;-58
2024/01/13 01:04:05;;;;;;;6.80;4.30;;;;;;;3.09;30.30;101484.38;105235;1254;60660;-58
2024/01/13 01:06:33;;;;;;;7.70;4.80;;;;;;;3.09;30.35;101480.73;105189;1255;60615;-58
2024/01/13 01:09:01;;;;;;;8.70;4.30;;;;;;;3.09;30.29;101478.48;105249;1259;74495;-60
2024/01/13 01:11:29;;;;;;;5.60;4.20;;;;;;;3.09;30.40;101472.94;105461;1257;71589;-60
2024/01/13 01:13:57;;;;;;;7.90;3.80;;;;;;;3.09;30.36;101468.59;105499;1251;72599;-60
2024/01/13 01:16:26;;;;;;;7.10;3.90;;;;;;;3.08;30.38;101464.94;105567;1257;60511;-61
2024/01/13 01:18:54;;;;;;;5.90;3.80;;;;;;;3.09;30.46;101460.10;105618;1257;60543;-61
2024/01/13 01:21:21;;;;;;;7.20;3.60;;;;;;;3.08;30.47;101454.52;105537;1257;73271;-62
2024/01/13 01:23:49;;;;;;;5.00;3.50;;;;;;;3.08;30.49;101454.69;105580;1253;71556;-60
2024/01/13 01:26:17;;;;;;;7.10;4.10;;;;;;;3.07;30.56;101447.39;105231;1258;73243;-61
2024/01/13 01:28:45;;;;;;;8.20;4.00;;;;;;;3.07;30.59;101446.34;105552;1257;60392;-60
2024/01/13 01:31:13;;;;;;;13.90;6.80;;;;;;;3.07;30.66;101450.50;105265;1254;60476;-59
2024/01/13 01:33:41;;;;;;;5.80;4.00;;;;;;;3.07;30.58;101449.44;105602;1257;72552;-59
2024/01/13 01:36:09;;;;;;;5.80;3.40;;;;;;;3.07;30.58;101442.86;105247;1260;71442;-59
2024/01/13 01:38:37;;;;;;;5.50;3.30;;;;;;;3.06;30.52;101439.88;105537;1258;71888;-59
2024/01/13 01:41:13;;;;;;;6.70;3.90;;;;;;;3.05;30.49;101436.40;105484;1253;60443;-59
2024/01/13 01:43:43;;;;;;;7.90;3.50;;;;;;;3.05;30.37;101438.48;105389;1257;60622;-60
2024/01/13 01:46:13;;;;;;;8.10;4.10;;;;;;;3.06;30.41;101437.29;105231;1263;74029;-58
2024/01/13 01:48:41;;;;;;;5.60;3.50;;;;;;;3.06;30.47;101437.10;105282;1260;71580;-59
2024/01/13 01:51:16;;;;;;;9.10;3.10;;;;;;;3.05;30.38;101426.35;105550;1254;72688;-59
2024/01/13 01:53:46;;;;;;;6.90;3.80;;;;;;;3.06;30.34;101418.38;105165;1260;60453;-60
2024/01/13 01:56:26;;;;;;;6.70;4.20;;;;;;;3.05;30.28;101417.33;105283;1251;60565;-60
2024/01/13 01:58:55;;;;;;;6.50;3.80;;;;;;;3.05;30.34;101408.85;105200;1260;72691;-60
2024/01/13 02:01:24;;;;;;;5.30;3.60;;;;;;;3.05;30.33;101405.88;105650;1257;72258;-60
2024/01/13 02:03:52;;;;;;;4.90;3.40;;;;;;;3.05;30.41;101403.45;105604;1256;72330;-59
2024/01/13 02:06:21;;;;;;;6.50;4.00;;;;;;;3.04;30.31;101399.61;105196;1263;60402;-59
2024/01/13 02:08:49;;;;;;;7.40;3.60;;;;;;;3.03;30.32;101397.48;105577;1251;60469;-59
2024/01/13 02:11:17;;;;;;;8.60;4.20;;;;;;;3.02;30.35;101393.32;105521;1256;73917;-60
2024/01/13 02:13:45;;;;;;;6.70;4.50;;;;;;;3.01;30.50;101388.95;105531;1256;71804;-60
2024/01/13 02:16:15;;;;;;;9.00;4.30;;;;;;;3.01;30.41;101392.77;105318;1260;71539;-60
2024/01/13 02:18:43;;;;;;;7.00;4.20;;;;;;;3.01;30.43;101393.43;105618;1256;60402;-61
2024/01/13 02:21:12;;;;;;;5.50;3.70;;;;;;;3.00;30.45;101394.29;105542;1252;60481;-61
2024/01/13 02:23:43;;;;;;;5.40;3.90;;;;;;;2.99;30.49;101393.58;105541;1258;73885;-60
2024/01/13 02:26:11;;;;;;;6.90;4.20;;;;;;;2.98;30.55;101390.42;105500;1257;72838;-58
2024/01/13 02:28:39;;;;;;;6.00;3.90;;;;;;;2.97;30.58;101389.68;105515;1257;72847;-59
2024/01/13 02:31:15;;;;;;;7.10;4.40;;;;;;;2.95;30.57;101388.23;105534;1257;60472;-58
2024/01/13 02:33:51;;;;;;;6.40;3.80;;;;;;;2.95;30.67;101387.54;105534;1257;60792;-58
2024/01/13 02:36:23;;;;;;;11.10;5.20;;;;;;;2.94;30.73;101387.52;105520;1254;72617;-59
2024/01/13 02:38:54;;;;;;;7.90;4.90;;;;;;;2.94;30.80;101389.95;105579;1261;73259;-59
2024/01/13 02:41:22;;;;;;;8.20;5.10;;;;;;;2.94;30.80;101388.89;105573;1264;71851;-59
2024/01/13 02:43:49;;;;;;;8.90;4.80;;;;;;;2.94;30.93;101393.25;105634;1257;60575;-59
2024/01/13 02:46:17;;;;;;;8.90;5.30;;;;;;;2.94;30.97;101395.48;105193;1257;60645;-60
2024/01/13 02:48:47;;;;;;;9.90;5.20;;;;;;;2.92;31.03;101390.74;105537;1257;72753;-60
2024/01/13 02:51:16;;;;;;;15.90;5.90;;;;;;;2.91;31.00;101386.39;105252;1269;71466;-60
2024/01/13 02:53:45;;;;;;;10.10;4.60;;;;;;;2.91;31.08;101385.48;105536;1255;71348;-60
2024/01/13 02:56:14;;;;;;;10.80;5.30;;;;;;;2.90;31.14;101383.39;105588;1257;60305;-60
2024/01/13 02:58:42;;;;;;;8.80;5.00;;;;;;;2.89;31.19;101385.79;105572;1257;60488;-60
2024/01/13 03:01:14;;;;;;;9.30;5.10;;;;;;;2.89;31.21;101382.84;105570;1253;73313;-60
2024/01/13 03:03:48;;;;;;;7.50;5.60;;;;;;;2.88;31.28;101381.95;105192;1257;71473;-59
2024/01/13 03:06:21;;;;;;;8.70;5.40;;;;;;;2.88;31.31;101379.69;105562;1257;71493;-61
2024/01/13 03:08:50;;;;;;;7.60;5.20;;;;;;;2.87;31.32;101367.70;105700;1252;60449;-62
2024/01/13 03:11:18;;;;;;;9.30;5.10;;;;;;;2.87;31.33;101363.71;105570;1257;60507;-61
2024/01/13 03:13:49;;;;;;;7.10;5.00;;;;;;;2.87;31.30;101368.38;105513;1257;73890;-59
2024/01/13 03:16:16;;;;;;;10.40;5.00;;;;;;;2.86;31.29;101368.52;105573;1260;73619;-59
2024/01/13 03:18:44;;;;;;;7.40;5.50;;;;;;;2.86;31.27;101371.09;105561;1256;71478;-61
2024/01/13 03:21:12;;;;;;;9.00;5.00;;;;;;;2.84;31.27;101364.64;105139;1262;60513;-61
2024/01/13 03:23:42;;;;;;;9.90;5.20;;;;;;;2.84;31.32;101360.13;105581;1252;60536;-61
2024/01/13 03:26:13;;;;;;;8.00;5.20;;;;;;;2.83;31.35;101356.48;105630;1256;72588;-61
2024/01/13 03:28:41;;;;;;;10.80;5.90;;;;;;;2.84;31.27;101355.45;105355;1259;71993;-61
2024/01/13 03:31:12;;;;;;;7.30;5.40;;;;;;;2.83;31.30;101356.80;105555;1251;71254;-62
2024/01/13 03:33:45;;;;;;;;;;;;;;;2.83;31.20;101352.66;105204;1255;60434;-61
2024/01/13 03:36:16;;;;;;;7.50;4.20;;;;;;;2.83;31.23;101352.13;105220;1257;60712;-61
2024/01/13 03:38:44;;;;;;;7.80;5.40;;;;;;;2.82;31.16;101352.60;105270;1253;72677;-60
2024/01/13 03:41:13;;;;;;;7.30;4.50;;;;;;;2.81;31.10;101349.83;105098;1263;71829;-61
2024/01/13 03:43:42;;;;;;;8.30;4.70;;;;;;;2.80;31.13;101344.77;105571;1257;71479;-61
2024/01/13 03:46:11;;;;;;;8.20;4.40;;;;;;;2.79;31.08;101340.23;105542;1257;60532;-61
2024/01/13 03:48:39;;;;;;;6.20;4.60;;;;;;;2.80;31.09;101333.67;105628;1257;60537;-59
2024/01/13 03:51:08;;;;;;;9.20;4.90;;;;;;;2.80;31.06;101333.17;105560;1256;72573;-60
2024/01/13 03:53:36;;;;;;;8.40;5.00;;;;;;;2.81;31.06;101332.66;105235;1254;71650;-61
2024/01/13 03:56:04;;;;;;;7.60;5.20;;;;;;;2.81;31.07;101334.05;105517;1257;71541;-62
2024/01/13 03:58:37;;;;;;;9.00;4.10;;;;;;;2.82;31.06;101330.45;105575;1251;60420;-62
2024/01/13 04:01:06;;;;;;;7.30;4.90;;;;;;;2.83;31.06;101323.02;105552;1257;60539;-62
2024/01/13 04:03:34;;;;;;;7.30;4.10;;;;;;;2.83;31.03;101328.58;105585;1251;73705;-64
2024/01/13 04:06:02;;;;;;;6.00;3.90;;;;;;;2.84;30.94;101320.81;105596;1257;71591;-64
2024/01/13 04:08:32;;;;;;;6.60;4.20;;;;;;;2.84;30.98;101318.57;105215;1264;71462;-64
2024/01/13 04:11:07;;;;;;;6.60;3.80;;;;;;;2.84;30.95;101312.66;105576;1266;60418;-64
2024/01/13 04:13:36;;;;;;;6.30;4.20;;;;;;;2.84;30.87;101311.63;105533;1257;60727;-65
2024/01/13 04:16:04;;;;;;;8.00;5.00;;;;;;;2.85;30.93;101313.04;105282;1258;72613;-64
2024/01/13 04:18:32;;;;;;;7.60;4.70;;;;;;;2.86;30.90;101307.88;105502;1254;73543;-65
2024/01/13 04:21:00;;;;;;;7.00;4.30;;;;;;;2.87;30.86;101303.39;105533;1251;71378;-65
2024/01/13 04:23:47;;;;;;;7.30;4.50;;;;;;;2.87;30.78;101305.50;105194;1257;60465;-65
2024/01/13 04:26:15;;;;;;;5.40;3.90;;;;;;;2.88;30.85;101300.65;105193;1260;60424;-64
2024/01/13 04:28:43;;;;;;;6.00;4.60;;;;;;;2.88;30.81;101298.42;105180;1254;72684;-64
2024/01/13 04:31:10;;;;;;;6.80;5.10;;;;;;;2.88;30.81;101292.70;105539;1257;72945;-65
2024/01/13 04:33:38;;;;;;;9.10;4.80;;;;;;;2.88;30.83;101287.85;105192;1251;71437;-65
2024/01/13 04:36:09;;;;;;;7.70;5.00;;;;;;;2.88;30.86;101288.73;105551;1256;60517;-64
2024/01/13 04:38:37;;;;;;;8.60;5.00;;;;;;;2.88;30.89;101283.02;105328;1260;60380;-64
2024/01/13 04:41:05;;;;;;;9.10;5.70;;;;;;;2.89;30.90;101282.14;105602;1257;72664;-65
2024/01/13 04:43:33;;;;;;;7.80;5.50;;;;;;;2.89;30.84;101284.58;105545;1254;72836;-65
2024/01/13 04:46:00;;;;;;;8.10;4.90;;;;;;;2.88;30.82;101288.36;105536;1256;72176;-63
2024/01/13 04:48:29;;;;;;;7.30;4.70;;;;;;;2.86;30.83;101294.02;105521;1253;60520;-64
2024/01/13 04:50:57;;;;;;;10.30;5.50;;;;;;;2.81;30.81;101290.40;105575;1254;60534;-65
2024/01/13 04:53:24;;;;;;;7.50;5.00;;;;;;;2.78;30.85;101288.40;105518;1258;74345;-64
2024/01/13 04:55:52;;;;;;;7.50;5.00;;;;;;;2.75;30.78;101283.11;105618;1257;71830;-64
2024/01/13 04:58:20;;;;;;;8.50;5.20;;;;;;;2.73;30.83;101285.28;105181;1260;71500;-64
2024/01/13 05:00:49;;;;;;;7.60;5.20;;;;;;;2.72;30.78;101288.89;105548;1266;60482;-63
2024/01/13 05:03:17;;;;;;;7.70;4.90;;;;;;;2.70;30.83;101286.05;105638;1256;60591;-61
2024/01/13 05:05:45;;;;;;;8.00;5.60;;;;;;;2.70;30.83;101280.00;105565;1251;71647;-60
2024/01/13 05:08:12;;;;;;;9.30;5.60;;;;;;;2.70;30.81;101280.84;105491;1256;72424;-60
2024/01/13 05:10:40;;;;;;;7.50;4.30;;;;;;;2.70;30.84;101282.79;105568;1255;71604;-59
2024/01/13 05:13:08;;;;;;;7.70;4.30;;;;;;;2.71;30.86;101279.16;105251;1260;60605;-65
2024/01/13 05:15:36;;;;;;;7.20;4.70;;;;;;;2.71;30.85;101277.08;105633;1257;60472;-62
2024/01/13 05:18:04;;;;;;;7.00;4.30;;;;;;;2.72;30.87;101274.86;105614;1258;72538;-62
2024/01/13 05:20:32;;;;;;;7.10;4.90;;;;;;;2.73;30.87;101274.36;105299;1260;71573;-65
2024/01/13 05:23:04;;;;;;;6.20;4.80;;;;;;;2.74;30.77;101267.13;105531;1251;70193;-64
2024/01/13 05:25:32;;;;;;;7.20;4.70;;;;;;;2.74;30.83;101262.63;105326;1258;60536;-64
2024/01/13 05:28:02;;;;;;;7.80;4.70;;;;;;;2.75;30.89;101260.27;105631;1257;60580;-64
2024/01/13 05:30:32;;;;;;;6.60;4.50;;;;;;;2.77;30.85;101255.95;105624;1253;73296;-65
2024/01/13 05:33:01;;;;;;;7.50;4.60;;;;;;;2.76;30.77;101256.64;105622;1254;72227;-65
2024/01/13 05:35:29;;;;;;;5.50;4.50;;;;;;;2.77;30.80;101253.02;105629;1251;71453;-63
2024/01/13 05:37:58;;;;;;;6.70;4.60;;;;;;;2.76;30.85;101249.02;105568;1264;60415;-64
2024/01/13 05:40:26;;;;;;;6.10;4.20;;;;;;;2.75;30.85;101249.68;105632;1257;60513;-65
2024/01/13 05:42:54;;;;;;;8.00;5.20;;;;;;;2.75;30.97;101240.84;105605;1257;72630;-64
2024/01/13 05:45:21;;;;;;;9.40;4.80;;;;;;;2.74;30.96;101236.99;105577;1251;71610;-65
2024/01/13 05:47:49;;;;;;;8.40;5.30;;;;;;;2.74;31.00;101235.25;105620;1251;71451;-66
2024/01/13 05:50:18;;;;;;;8.40;5.10;;;;;;;2.74;31.02;101231.10;105203;1256;467739;-66
2024/01/13 05:52:45;;;;;;;8.80;5.30;;;;;;;2.74;31.06;101235.26;105578;1251;60478;-68
2024/01/13 05:55:13;;;;;;;7.70;4.50;;;;;;;2.73;31.17;101242.48;105583;1257;74493;-64
2024/01/13 05:57:41;;;;;;;6.90;4.70;;;;;;;2.72;31.17;101241.09;105257;1257;72833;-65
2024/01/13 06:00:09;;;;;;;7.20;4.90;;;;;;;2.72;31.21;101242.11;105569;1254;72732;-64
2024/01/13 06:02:37;;;;;;;7.60;4.10;;;;;;;2.71;31.12;101248.33;105725;1252;61966;-63
2024/01/13 06:05:06;;;;;;;8.10;4.70;;;;;;;2.69;31.17;101248.08;105597;1257;60793;-62
2024/01/13 06:07:34;;;;;;;9.80;6.50;;;;;;;2.69;31.17;101247.73;105355;1251;72935;-64
2024/01/13 06:10:10;;;;;;;11.80;7.70;;;;;;;2.71;31.21;101247.09;105128;1254;71650;-64
2024/01/13 06:12:38;;;;;;;11.40;8.10;;;;;;;2.72;31.30;101244.55;105638;1251;72582;-61
2024/01/13 06:15:07;;;;;;;11.50;6.40;;;;;;;2.72;31.31;101234.67;105638;1254;60530;-60
2024/01/13 06:17:35;;;;;;;9.00;5.80;;;;;;;2.71;31.45;101236.39;105439;1254;60529;-61
2024/01/13 06:20:04;;;;;;;8.50;5.10;;;;;;;2.70;31.47;101235.48;105672;1256;72819;-61
2024/01/13 06:22:31;;;;;;;7.80;4.60;;;;;;;2.69;31.56;101236.65;105688;1251;71563;-61
2024/01/13 06:25:02;;;;;;;9.00;4.40;;;;;;;2.69;31.62;101235.06;105554;1256;72693;-59
2024/01/13 06:27:30;;;;;;;6.70;3.70;;;;;;;2.67;31.62;101234.70;105650;1251;60456;-59
2024/01/13 06:29:57;;;;;;;4.80;3.60;;;;;;;2.65;31.69;101231.86;105631;1253;60514;-58
2024/01/13 06:32:25;;;;;;;6.50;3.60;;;;;;;2.64;31.72;101226.46;105582;1254;74950;-58
2024/01/13 06:34:53;;;;;;;5.60;3.60;;;;;;;2.65;31.70;101225.64;105267;1254;71573;-58
2024/01/13 06:37:23;;;;;;;5.50;3.60;;;;;;;2.67;31.74;101222.57;105489;1251;71625;-60
2024/01/13 06:39:51;;;;;;;6.30;3.60;;;;;;;2.68;31.65;101222.94;105285;1259;60519;-57
2024/01/13 06:42:19;;;;;;;4.80;3.10;;;;;;;2.70;31.62;101224.55;105271;1251;60709;-59
2024/01/13 06:44:48;;;;;;;5.10;3.10;;;;;;;2.70;31.54;101220.94;105557;1257;72638;-60
2024/01/13 06:47:16;;;;;;;5.10;3.10;;;;;;;2.72;31.51;101223.23;105556;1257;72951;-60
2024/01/13 06:49:46;;;;;;;6.40;3.10;;;;;;;2.72;31.46;101217.18;105391;1254;73318;-58
2024/01/13 06:52:14;;;;;;;6.70;4.00;;;;;;;2.74;31.46;101210.32;105386;1259;60591;-59
2024/01/13 06:54:42;;;;;;;7.10;3.20;;;;;;;2.76;31.43;101208.28;105611;1251;60622;-60
2024/01/13 06:57:09;;;;;;;6.00;4.20;;;;;;;2.76;31.53;101211.61;105680;1251;71656;-56
2024/01/13 06:59:37;;;;;;;7.50;4.20;;;;;;;2.78;31.56;101205.58;105599;1251;72809;-59
2024/01/13 07:02:06;;;;;;;6.60;5.40;;;;;;;2.79;31.64;101203.73;105656;1254;72696;-56
2024/01/13 07:04:36;;;;;;;7.20;4.90;;;;;;;2.82;31.64;101206.41;105183;1262;60427;-57
2024/01/13 07:07:05;;;;;;;7.60;4.50;;;;;;;2.86;31.66;101205.32;105651;1251;60591;-55
2024/01/13 07:09:32;;;;;;;7.10;4.10;;;;;;;2.89;31.69;101201.42;105616;1251;74576;-55
2024/01/13 07:12:00;;;;;;;8.00;4.00;;;;;;;2.91;31.60;101203.91;105406;1251;72460;-55
2024/01/13 07:14:30;;;;;;;7.50;4.00;;;;;;;2.92;31.55;101199.77;105636;1254;71526;-55
2024/01/13 07:16:58;;;;;;;5.90;4.30;;;;;;;2.93;31.59;101193.41;105660;1257;60409;-57
2024/01/13 07:19:26;;;;;;;7.50;4.50;;;;;;;2.96;31.53;101191.56;105362;1253;61037;-57
2024/01/13 07:21:54;;;;;;;7.20;3.60;;;;;;;2.96;31.59;101180.66;105697;1251;73015;-62
2024/01/13 07:24:22;;;;;;;5.90;4.20;;;;;;;2.97;31.58;101185.38;105614;1251;71577;-60
2024/01/13 07:26:50;;;;;;;6.50;3.40;;;;;;;2.97;31.56;101181.23;105640;1257;72710;-61
2024/01/13 07:29:19;;;;;;;9.40;4.50;;;;;;;2.97;31.51;101177.93;105635;1254;60638;-58
2024/01/13 07:31:47;;;;;;;4.90;3.00;;;;;;;2.97;31.49;101179.15;105305;1251;60537;-57
2024/01/13 07:34:15;;;;;;;5.40;3.30;;;;;;;2.98;31.52;101178.83;105390;1256;72661;-61
2024/01/13 07:36:43;;;;;;;7.00;3.00;;;;;;;3.01;31.45;101181.48;105635;1251;71580;-60
2024/01/13 07:39:11;;;;;;;4.20;3.00;;;;;;;3.03;31.48;101181.90;105489;1259;72682;-59
2024/01/13 07:41:39;;;;;;;4.00;2.60;;;;;;;3.05;31.48;101183.51;105385;1251;60414;-59
2024/01/13 07:44:09;;;;;;;4.50;2.50;;;;;;;3.06;31.47;101183.05;105615;1251;60628;-58
2024/01/13 07:46:41;;;;;;;4.20;2.90;;;;;;;3.08;31.64;101179.30;105691;1251;73835;-59
2024/01/13 07:49:09;;;;;;;5.10;2.80;;;;;;;3.12;31.85;101186.32;105663;1257;72172;-61
2024/01/13 07:51:38;;;;;;;3.60;2.30;;;;;;;3.15;32.12;101184.70;105617;1252;72767;-61
2024/01/13 07:54:06;;;;;;;5.30;2.60;;;;;;;3.19;32.20;101178.04;105633;1255;60455;-61
2024/01/13 07:56:34;;;;;;;3.10;2.00;;;;;;;3.22;32.31;101176.05;105603;1257;61166;-61
2024/01/13 07:59:03;;;;;;;3.90;2.50;;;;;;;3.25;32.32;101172.00;105665;1254;72590;-61
2024/01/13 08:01:31;;;;;;;4.10;2.20;;;;;;;3.31;32.29;101173.20;105648;1251;72367;-62
2024/01/13 08:04:07;;;;;;;3.20;2.30;;;;;;;3.37;32.17;101171.45;105606;1254;72771;-61
2024/01/13 08:06:35;;;;;;;3.70;1.70;;;;;;;3.41;31.95;101162.89;105581;1256;60421;-61
2024/01/13 08:09:06;;;;;;;2.90;1.70;;;;;;;3.45;31.79;101164.91;105599;1257;60449;-61
2024/01/13 08:11:34;;;;;;;1.90;1.50;;;;;;;3.50;31.81;101164.70;105664;1254;73941;-60
2024/01/13 08:14:08;;;;;;;3.40;1.70;;;;;;;3.55;31.72;101156.66;105664;1251;72796;-60
2024/01/13 08:16:36;;;;;;;3.50;1.70;;;;;;;3.57;31.65;101156.56;105618;1255;72666;-59
2024/01/13 08:19:13;;;;;;;4.00;1.60;;;;;;;3.60;31.63;101156.80;105605;1254;60513;-59
2024/01/13 08:21:41;;;;;;;2.40;1.50;;;;;;;3.62;31.63;101161.23;105636;1251;60530;-58
2024/01/13 08:24:10;;;;;;;3.90;1.90;;;;;;;3.65;31.73;101163.71;105627;1252;72599;-58
2024/01/13 08:26:39;;;;;;;4.30;2.10;;;;;;;3.68;31.96;101160.33;105717;1251;71605;-60
2024/01/13 08:29:08;;;;;;;3.20;1.90;;;;;;;3.71;32.13;101145.33;105593;1251;71691;-61
2024/01/13 08:31:36;;;;;;;3.90;2.00;;;;;;;3.75;32.41;101141.77;105469;1251;60477;-58
2024/01/13 08:34:08;;;;;;;4.40;2.30;;;;;;;3.76;32.70;101158.80;105613;1251;60603;-58
2024/01/13 08:36:45;;;;;;;4.80;2.30;;;;;;;3.78;32.89;101157.98;105299;1255;73927;-59
2024/01/13 08:39:13;;;;;;;4.60;2.20;;;;;;;3.82;33.16;101147.84;105316;1254;73278;-59
2024/01/13 08:41:41;;;;;;;4.10;2.50;;;;;;;3.85;33.29;101146.73;105354;1257;72741;-59
2024/01/13 08:44:09;;;;;;;4.40;2.70;;;;;;;3.88;33.58;101149.58;105363;1257;60430;-57
2024/01/13 08:46:36;;;;;;;5.10;3.00;;;;;;;3.97;43.04;101139.91;105268;1254;60507;-56
2024/01/13 08:49:04;;;;;;;6.60;2.50;;;;;;;4.13;45.87;101138.73;105312;1257;74040;-58
2024/01/13 08:51:33;;;;;;;4.30;3.10;;;;;;;4.21;45.24;101124.36;105313;1254;71874;-59
2024/01/13 08:54:03;;;;;;;6.70;3.20;;;;;;;4.25;43.46;101129.14;105307;1254;71445;-58
2024/01/13 08:56:35;;;;;;;8.70;2.90;;;;;;;4.27;41.89;101129.69;105284;1254;60528;-58
2024/01/13 08:59:08;;;;;;;5.70;3.20;;;;;;;4.29;40.49;101111.50;105293;1253;60578;-59
2024/01/13 09:01:37;;;;;;;4.60;2.80;;;;;;;4.32;39.55;101103.23;105273;1253;72627;-57
2024/01/13 09:04:08;;;;;;;6.40;4.30;;;;;;;4.34;38.77;101103.81;105141;1260;70516;-55
2024/01/13 09:06:36;;;;;;;7.30;3.10;;;;;;;4.34;38.25;101097.40;105240;1259;72741;-56
2024/01/13 09:09:04;;;;;;;5.40;3.60;;;;;;;4.37;37.90;101106.83;105343;1257;60492;-55
2024/01/13 09:11:33;;;;;;;5.10;3.10;;;;;;;4.39;37.62;101091.95;105451;1254;60428;-57
2024/01/13 09:14:10;;;;;;;5.50;3.50;;;;;;;4.42;37.36;101100.69;105214;1257;73990;-58
2024/01/13 09:16:39;;;;;;;4.30;2.80;;;;;;;4.41;37.24;101106.92;105517;1257;71512;-57
2024/01/13 09:19:08;;;;;;;4.20;2.80;;;;;;;4.42;37.02;101100.52;105175;1254;71458;-55
2024/01/13 09:21:38;;;;;;;4.50;2.70;;;;;;;4.42;36.97;101081.76;105132;1253;60495;-56
2024/01/13 09:24:11;;;;;;;7.70;3.40;;;;;;;4.44;37.80;101095.88;105232;1254;60520;-58
2024/01/13 09:26:41;;;;;;;5.40;3.60;;;;;;;4.47;38.18;101098.90;105433;1253;72823;-57
2024/01/13 09:29:12;;;;;;;6.30;2.90;;;;;;;4.51;37.77;101079.02;105036;1254;73403;-59
2024/01/13 09:31:40;;;;;;;4.60;2.80;;;;;;;4.55;37.47;101088.14;105295;1254;71086;-62
2024/01/13 09:34:09;;;;;;;6.20;3.20;;;;;;;4.58;37.18;101074.13;105355;1257;60438;-58
2024/01/13 09:36:41;;;;;;;5.20;3.60;;;;;;;4.61;36.96;101066.02;105530;1254;60299;-60
2024/01/13 09:39:14;;;;;;;5.40;3.30;;;;;;;4.62;36.64;101064.67;105456;1255;72897;-57
2024/01/13 09:41:46;;;;;;;6.80;3.30;;;;;;;4.63;36.57;101065.55;104910;1254;70614;-60
2024/01/13 09:44:29;;;;;;;4.80;3.10;;;;;;;4.65;36.60;101070.11;105434;1254;72479;-60
2024/01/13 09:46:57;;;;;;;;;;;;;;;4.66;36.56;101061.45;105504;1257;60439;-60
2024/01/13 09:49:27;;;;;;;6.00;3.50;;;;;;;4.67;36.56;101047.05;105440;1256;60406;-62
2024/01/13 09:51:56;;;;;;;8.00;3.40;;;;;;;4.69;36.63;101044.14;105500;1251;74592;-59
2024/01/13 09:54:25;;;;;;;6.00;3.40;;;;;;;4.71;36.68;101037.05;105131;1259;72837;-69
2024/01/13 09:56:55;;;;;;;4.80;3.00;;;;;;;4.72;36.69;101040.20;105411;1252;72949;-63
2024/01/13 09:59:28;;;;;;;5.80;3.50;;;;;;;4.74;36.80;101024.95;105309;1254;60457;-61
2024/01/13 10:02:01;;;;;;;9.30;3.90;;;;;;;4.76;36.90;101031.06;105629;1250;60497;-64
2024/01/13 10:04:30;;;;;;;7.00;4.00;;;;;;;4.78;37.00;101026.58;105541;1255;74240;-60
2024/01/13 10:06:58;;;;;;;6.90;4.00;;;;;;;4.78;37.12;101021.38;105281;1259;73635;-62
2024/01/13 10:09:26;;;;;;;5.50;3.70;;;;;;;4.80;37.27;101012.54;105543;1254;73043;-62
2024/01/13 10:12:07;;;;;;;5.70;3.80;;;;;;;4.82;37.33;101002.50;105485;1252;60477;-63
2024/01/13 10:14:39;;;;;;;7.90;3.80;;;;;;;4.83;37.36;101015.02;105363;1256;61217;-63
2024/01/13 10:17:10;;;;;;;5.40;2.90;;;;;;;4.84;37.45;101003.24;105365;1256;74211;-64
2024/01/13 10:19:42;;;;;;;6.70;3.70;;;;;;;4.85;37.41;101005.00;109304;1250;72288;-60
2024/01/13 10:22:13;;;;;;;5.80;3.50;;;;;;;4.87;37.43;101006.59;109351;1251;72485;-60
2024/01/13 10:24:40;;;;;;;6.80;3.60;;;;;;;4.89;37.35;101004.73;109124;1251;59048;-60
2024/01/13 10:27:08;;;;;;;7.50;3.90;;;;;;;4.92;37.50;100993.15;109223;1251;60079;-62
2024/01/13 10:29:38;;;;;;;7.00;3.70;;;;;;;4.97;37.58;100988.02;109300;1251;73948;-62
2024/01/13 10:32:08;;;;;;;5.90;3.60;;;;;;;5.01;37.68;100987.58;109208;1251;71672;-64
2024/01/13 10:34:37;;;;;;;7.90;4.00;;;;;;;5.06;37.89;100984.54;109372;1251;72910;-63
2024/01/13 10:37:13;;;;;;;6.70;4.00;;;;;;;5.10;38.34;100974.35;109340;1251;58248;-63
2024/01/13 10:39:41;;;;;;;7.20;3.90;;;;;;;5.14;38.97;100971.62;109388;1251;60852;-63
2024/01/13 10:42:15;;;;;;;5.20;3.60;;;;;;;5.14;39.12;100972.16;109333;1251;73874;-63
2024/01/13 10:44:58;;;;;;;6.50;4.00;;;;;;;5.16;39.11;100959.85;109038;1251;72902;-63
2024/01/13 10:47:34;;;;;;;7.20;4.00;;;;;;;5.18;39.19;100961.61;109349;1251;72698;-62
2024/01/13 10:50:01;;;;;;;6.10;3.60;;;;;;;5.21;39.22;100960.29;109328;1251;58478;-63
2024/01/13 10:52:32;;;;;;;6.60;4.10;;;;;;;5.25;39.21;100969.39;109343;1251;60142;-64
2024/01/13 10:55:02;;;;;;;7.10;4.20;;;;;;;5.28;39.14;100966.14;109354;1251;72374;-58
2024/01/13 10:57:29;;;;;;;4.70;3.30;;;;;;;5.31;39.25;100956.79;109375;1251;72847;-58
2024/01/13 10:59:57;;;;;;;5.80;4.10;;;;;;;5.33;39.31;100956.83;109245;1251;72700;-58
2024/01/13 11:02:26;;;;;;;6.90;4.90;;;;;;;5.35;39.35;100958.42;109316;1251;58496;-59
2024/01/13 11:04:54;;;;;;;7.50;4.20;;;;;;;5.36;39.54;100950.96;109150;1251;58554;-62
2024/01/13 11:07:23;;;;;;;7.10;4.50;;;;;;;5.38;39.55;100954.46;109346;1251;71825;-61
2024/01/13 11:09:51;;;;;;;8.30;4.40;;;;;;;5.40;39.63;100941.48;109312;1251;72824;-60
2024/01/13 11:12:25;;;;;;;7.10;4.60;;;;;;;5.41;39.60;100938.36;109288;1251;73258;-61
2024/01/13 11:15:08;;;;;;;5.80;4.60;;;;;;;5.41;39.68;100936.95;109317;1251;59793;-61
2024/01/13 11:17:37;;;;;;;6.40;4.90;;;;;;;5.41;39.75;100932.44;108970;1256;59183;-55
2024/01/13 11:20:10;;;;;;;10.10;5.10;;;;;;;5.45;44.13;100934.77;109425;1251;72642;-58
2024/01/13 11:22:39;;;;;;;8.30;4.90;;;;;;;5.55;47.77;100933.17;109456;1251;72152;-59
2024/01/13 11:25:22;;;;;;;11.10;4.70;;;;;;;5.61;47.77;100932.92;109130;1251;71445;-57
2024/01/13 11:28:02;;;;;;;6.10;4.30;;;;;;;5.65;46.79;100930.04;109289;1251;58610;-59
2024/01/13 11:30:40;;;;;;;5.50;4.00;;;;;;;5.68;45.56;100924.86;109263;1251;60403;-57
2024/01/13 11:33:10;;;;;;;8.30;4.60;;;;;;;5.70;44.50;100918.96;109478;1251;72644;-59
2024/01/13 11:35:38;;;;;;;6.10;4.80;;;;;;;5.72;43.62;100916.89;109422;1251;72857;-57